Latest Weather Observations for Norseman Airport

IDW60801

Issued at 8:32 am WST Thursday 11 February 2016 (issued every 30 minutes, with the page automatically refreshed every 10 minutes)

About weather observations | Map of weather stations | Latest weather observations for WA | Other Formats
Station Details ID: 012009 Name: NORSEMAN AERO Lat: -32.21 Lon: 121.75 Height: 262.5 m
Data from the previous 72 hours. | See also: Recent months at Norseman Airport
Date/Time
WST
Temp
°C
App
Temp
°C
Dew
Point
Rel
Hum
%
Delta-T
°C
Wind Press
QNH
hPa
Press
MSL
hPa
Rain
since 9 am
mm
Dir
 
Spd
km/h
Gust
km/h
Spd
kts
Gust
kts
11/08:30am 29.6 25.3 10.7 31 10.9 NNE 24 30 13 16 1016.3 1015.0 0.0
11/08:00am 27.9 23.7 11.0 35 9.7 NNE 24 30 13 16 1016.4 1015.1 0.0
11/07:30am 26.5 22.3 11.0 38 8.9 N 24 28 13 15 1016.5 1015.2 0.0
11/07:00am 25.2 21.8 11.4 42 7.9 NNE 20 26 11 14 1016.4 1015.1 0.0
11/06:30am 23.7 20.8 11.1 45 7.1 NNE 17 20 9 11 1016.3 1015.0 0.0
11/06:00am 22.5 19.6 10.9 48 6.5 NE 17 20 9 11 1016.1 1014.8 0.0
11/05:30am 21.8 19.3 10.9 50 6.1 NE 15 19 8 10 1015.8 1014.5 0.0
11/05:00am 21.9 19.4 11.0 50 6.1 NNE 15 17 8 9 1015.6 1014.3 0.0
11/04:30am 23.0 20.3 10.4 45 7.0 NE 15 17 8 9 1015.3 1013.9 0.0
11/04:00am 23.5 20.9 10.6 44 7.2 NE 15 19 8 10 1015.2 1013.8 0.0
11/03:30am 23.7 21.3 10.0 42 7.6 NE 13 17 7 9 1015.0 1013.7 0.0
11/03:00am 24.3 22.3 10.2 41 7.9 ENE 11 17 6 9 1014.8 1013.5 0.0
11/02:30am 25.3 22.6 10.4 39 8.4 NE 15 22 8 12 1014.7 1013.4 0.0
11/02:00am 25.5 22.7 10.1 38 8.6 ENE 15 19 8 10 1014.7 1013.4 0.0
11/01:30am 25.6 23.2 10.2 38 8.6 ENE 13 17 7 9 1014.7 1013.4 0.0
11/01:00am 26.3 24.3 10.0 36 9.2 ENE 11 15 6 8 1014.8 1013.5 0.0
11/12:30am 26.5 24.5 10.2 36 9.2 ENE 11 13 6 7 1014.8 1013.5 0.0
11/12:00am 27.5 25.1 10.2 34 9.8 NE 13 19 7 10 1014.9 1013.6 0.0
 
Date/Time
WST
Temp
°C
App
Temp
°C
Dew
Point
Rel
Hum
%
Delta-T
°C
Wind Press
QNH
hPa
Press
MSL
hPa
Rain
since 9 am
mm
Dir
 
Spd
km/h
Gust
km/h
Spd
kts
Gust
kts
10/11:30pm 28.8 27.1 10.0 31 10.7 ENE 9 17 5 9 1014.9 1013.6 0.0
10/11:00pm 30.2 28.2 10.2 29 11.5 ENE 11 19 6 10 1015.0 1013.7 0.0
10/10:30pm 31.0 27.9 10.4 28 11.9 ENE 17 22 9 12 1014.9 1013.6 0.0
10/10:00pm 31.9 27.8 10.0 26 12.6 ENE 22 32 12 17 1014.8 1013.5 0.0
10/09:30pm 32.0 28.8 11.2 28 12.2 E 19 28 10 15 1014.7 1013.4 0.0
10/09:00pm 32.0 29.2 10.1 26 12.6 ESE 15 20 8 11 1014.8 1013.5 0.0
10/08:30pm 33.1 28.9 5.6 18 14.9 ESE 17 26 9 14 1014.5 1013.2 0.0
10/08:00pm 32.9 29.1 3.8 16 15.3 E 13 15 7 8 1013.9 1012.6 0.0
10/07:30pm 33.6 29.7 3.4 15 15.8 E 13 13 7 7 1013.7 1012.4 0.0
10/07:00pm 35.8 32.6 3.1 13 17.2 E 9 11 5 6 1013.5 1012.2 0.0
10/06:30pm 38.4 35.3 1.4 10 19.3 ESE 7 9 4 5 1013.3 1012.0 0.0
10/06:00pm 39.3 35.6 2.1 10 19.7 S 11 17 6 9 1013.1 1011.8 0.0
10/05:30pm 39.8 36.5 2.5 10 19.9 SE 9 17 5 9 1013.1 1011.8 0.0
10/05:00pm 40.1 35.4 1.2 9 20.4 SSW 15 20 8 11 1013.0 1011.7 0.0
10/04:30pm 40.5 35.9 1.5 9 20.6 SSW 15 22 8 12 1013.0 1011.7 0.0
10/04:00pm 41.0 38.0 1.9 9 20.8 WNW 7 19 4 10 1013.2 1011.9 0.0
10/03:30pm 40.0 35.7 1.1 9 20.4 NNE 13 19 7 10 1013.3 1012.0 0.0
10/03:00pm 39.9 36.2 2.5 10 20.0 WSW 11 20 6 11 1013.6 1012.3 0.0
10/02:30pm 39.7 35.2 2.4 10 19.9 NE 15 24 8 13 1014.0 1012.7 0.0
10/02:00pm 39.1 35.7 1.9 10 19.6 SE 9 15 5 8 1014.4 1013.1 0.0
10/01:30pm 38.7 35.1 3.0 11 19.1 SW 11 17 6 9 1014.8 1013.5 0.0
10/01:00pm 38.6 33.9 2.9 11 19.0 NW 17 24 9 13 1015.3 1013.9 0.0
10/12:30pm 38.3 34.1 3.9 12 18.6 N 15 28 8 15 1015.8 1014.5 0.0
10/12:00pm 38.0 34.2 3.7 12 18.5 NNW 13 20 7 11 1016.0 1014.7 0.0
10/11:30am 37.6 34.0 6.6 15 17.4 N 15 22 8 12 1016.2 1014.9 0.0
10/11:00am 35.9 32.2 7.9 18 15.9 N 17 20 9 11 1016.6 1015.3 0.0
10/10:30am 34.7 31.5 9.9 22 14.5 N 17 20 9 11 1017.1 1015.8 0.0
10/10:00am 33.3 30.5 11.2 26 13.0 N 17 20 9 11 1017.4 1016.1 0.0
10/09:30am 31.4 28.4 10.7 28 12.0 N 17 20 9 11 1017.7 1016.4 0.0
10/09:00am 29.7 26.7 10.8 31 10.9 N 17 22 9 12 1017.8 1016.5 0.0
10/08:30am 28.9 26.0 11.0 33 10.3 N 17 19 9 10 1017.9 1016.6 0.0
10/08:00am 26.5 24.2 11.8 40 8.5 N 15 19 8 10 1018.0 1016.7 0.0
10/07:30am 25.1 22.9 12.0 44 7.6 N 15 19 8 10 1017.8 1016.5 0.0
10/07:00am 24.1 22.3 12.1 47 6.9 NNE 13 17 7 9 1017.6 1016.3 0.0
10/06:30am 22.7 21.3 12.3 52 6.0 NE 11 15 6 8 1017.3 1016.0 0.0
10/06:00am 19.6 18.5 12.1 62 4.2 NE 9 11 5 6 1017.1 1015.8 0.0
10/05:30am 18.6 17.8 11.7 64 3.8 N 7 9 4 5 1016.9 1015.6 0.0
10/05:00am 19.9 18.8 11.9 60 4.5 NE 9 11 5 6 1016.6 1015.3 0.0
10/04:30am 19.9 18.5 12.2 61 4.4 NE 11 13 6 7 1016.4 1015.1 0.0
10/04:00am 20.6 20.0 12.3 59 4.7 NNE 7 11 4 6 1016.2 1014.9 0.0
10/03:30am 21.4 21.0 12.5 57 5.1 NNE 6 9 3 5 1015.9 1014.6 0.0
10/03:00am 22.0 21.0 12.3 54 5.5 NE 9 11 5 6 1015.5 1014.2 0.0
10/02:30am 23.0 22.0 12.3 51 6.2 NE 9 15 5 8 1015.6 1014.3 0.0
10/02:00am 23.3 22.2 12.0 49 6.5 NE 9 15 5 8 1015.7 1014.4 0.0
10/01:30am 24.4 22.6 12.0 46 7.1 ENE 13 20 7 11 1015.7 1014.4 0.0
10/01:00am 25.2 23.8 12.1 44 7.6 E 11 19 6 10 1015.8 1014.5 0.0
10/12:30am 26.0 24.6 12.1 42 8.1 E 11 17 6 9 1015.9 1014.6 0.0
10/12:00am 26.8 23.7 12.1 40 8.6 E 20 30 11 16 1015.8 1014.5 0.0
 
Date/Time
WST
Temp
°C
App
Temp
°C
Dew
Point
Rel
Hum
%
Delta-T
°C
Wind Press
QNH
hPa
Press
MSL
hPa
Rain
since 9 am
mm
Dir
 
Spd
km/h
Gust
km/h
Spd
kts
Gust
kts
09/11:30pm 27.7 24.6 12.1 38 9.1 E 20 32 11 17 1015.8 1014.5 0.0
09/11:00pm 28.4 25.1 11.5 35 9.8 ESE 20 30 11 16 1015.9 1014.6 0.0
09/10:30pm 29.1 26.0 11.6 33 10.2 ESE 19 30 10 16 1015.8 1014.5 0.0
09/10:00pm 29.7 26.6 11.7 33 10.6 ESE 19 28 10 15 1015.8 1014.5 0.0
09/09:30pm 30.1 26.7 11.1 31 11.1 ESE 20 30 11 16 1015.7 1014.4 0.0
09/09:00pm 31.3 27.1 8.3 24 12.9 SE 20 33 11 18 1015.7 1014.4 0.0
09/08:30pm 31.8 28.7 3.8 17 14.6 SE 9 13 5 7 1015.3 1013.9 0.0
09/08:00pm 31.6 28.3 4.4 18 14.3 SE 11 15 6 8 1014.9 1013.6 0.0
09/07:30pm 31.0 28.3 5.4 20 13.6 SSE 9 11 5 6 1014.8 1013.5 0.0
09/07:00pm 33.7 30.8 4.4 16 15.6 SE 9 11 5 6 1014.6 1013.3 0.0
09/06:30pm 36.1 32.6 3.3 13 17.4 SE 11 19 6 10 1014.3 1013.0 0.0
09/06:00pm 37.2 33.1 4.2 13 17.8 SSE 15 22 8 12 1014.2 1012.9 0.0
09/05:30pm 37.8 33.5 3.5 12 18.4 SSE 15 24 8 13 1014.1 1012.8 0.0
09/05:00pm 38.5 35.1 4.1 12 18.7 S 11 20 6 11 1013.9 1012.6 0.0
09/04:30pm 39.4 34.2 2.2 10 19.7 WSW 19 33 10 18 1013.9 1012.6 0.0
09/04:00pm 38.3 34.3 2.7 11 18.9 WNW 13 20 7 11 1014.1 1012.8 0.0
09/03:30pm 37.6 34.5 3.4 12 18.3 W 9 13 5 7 1014.3 1013.0 0.0
09/03:00pm 37.7 34.0 4.6 13 18.0 S 13 26 7 14 1014.5 1013.2 0.0
09/02:30pm 37.7 34.8 6.6 15 17.5 NNW 11 19 6 10 1014.9 1013.6 0.0
09/02:00pm 37.0 33.3 6.1 15 17.2 S 15 24 8 13 1015.3 1013.9 0.0
09/01:30pm 36.5 33.4 5.7 15 17.0 NNW 11 17 6 9 1015.8 1014.5 0.0
09/01:00pm 37.1 34.1 6.2 15 17.2 WNW 11 33 6 18 1016.1 1014.8 0.0
09/12:30pm 35.8 33.2 4.2 14 17.0 NE 7 13 4 7 1016.6 1015.3 0.0
09/12:00pm 34.7 31.5 5.2 16 16.0 NNE 11 19 6 10 1017.2 1015.9 0.0
09/11:30am 33.2 30.3 6.5 19 14.7 N 11 17 6 9 1017.7 1016.4 0.0
09/11:00am 31.9 30.0 10.6 27 12.4 N 11 17 6 9 1018.1 1016.8 0.0
09/10:30am 30.4 28.4 11.4 31 11.1 NNE 13 19 7 10 1018.6 1017.3 0.0
09/10:00am 28.9 26.1 11.5 34 10.1 N 17 24 9 13 1018.9 1017.7 0.0
09/09:30am 27.2 24.5 11.7 38 9.0 N 17 24 9 13 1019.0 1017.8 0.0
09/09:00am 25.9 23.0 12.4 43 7.9 N 19 22 10 12 1019.3 1018.0 0.0
09/08:30am 23.8 21.1 12.8 50 6.4 N 19 24 10 13 1019.4 1018.1 0.0
09/08:00am 22.7 19.7 12.6 53 5.8 N 20 26 11 14 1019.6 1018.3 0.0
09/07:30am 21.6 18.0 13.0 58 5.0 NNE 24 30 13 16 1019.7 1018.4 0.0
09/07:00am 20.4 17.5 12.9 62 4.3 NNE 20 26 11 14 1019.8 1018.5 0.0
09/06:30am 18.9 16.4 12.2 65 3.8 NE 17 24 9 13 1019.6 1018.3 0.0
09/06:00am 18.2 16.0 12.2 68 3.4 NE 15 19 8 10 1019.4 1018.1 0.0
09/05:30am 17.5 15.7 12.0 70 3.1 NE 13 15 7 8 1019.3 1018.0 0.0
09/05:00am 17.9 16.0 11.9 68 3.3 NE 13 15 7 8 1019.0 1017.8 0.0
09/04:30am 18.5 16.3 12.0 66 3.6 NE 15 17 8 9 1018.8 1017.6 0.0
09/04:00am 18.8 16.9 11.9 64 3.9 NE 13 15 7 8 1018.6 1017.3 0.0
09/03:30am 19.2 17.7 12.0 63 4.0 NE 11 15 6 8 1018.5 1017.2 0.0
09/03:00am 19.5 18.0 11.8 61 4.3 NE 11 17 6 9 1018.6 1017.3 0.0
09/02:30am 19.8 18.3 11.8 60 4.5 NE 11 15 6 8 1018.7 1017.5 0.0
09/02:00am 20.6 18.7 11.8 57 4.9 NE 13 19 7 10 1018.9 1017.7 0.0
09/01:30am 20.8 19.3 12.0 57 5.0 NE 11 15 6 8 1019.0 1017.8 0.0
09/01:00am 21.5 19.7 12.1 55 5.3 NE 13 15 7 8 1019.3 1018.0 0.0
09/12:30am 22.4 20.6 12.1 52 5.9 ENE 13 17 7 9 1019.3 1018.0 0.0
09/12:00am 22.9 21.4 11.9 50 6.3 ENE 11 19 6 10 1019.5 1018.2 0.0
 
Date/Time
WST
Temp
°C
App
Temp
°C
Dew
Point
Rel
Hum
%
Delta-T
°C
Wind Press
QNH
hPa
Press
MSL
hPa
Rain
since 9 am
mm
Dir
 
Spd
km/h
Gust
km/h
Spd
kts
Gust
kts
08/11:30pm 23.7 21.5 12.0 48 6.7 ENE 15 22 8 12 1019.4 1018.1 0.0
08/11:00pm 24.5 21.7 12.5 47 7.0 E 19 26 10 14 1019.2 1017.9 0.0
08/10:30pm 25.1 22.2 12.3 45 7.4 E 19 26 10 14 1019.0 1017.8 0.0
08/10:00pm 26.1 22.9 11.8 41 8.3 E 20 32 11 17 1019.0 1017.8 0.0
08/09:30pm 27.2 23.5 9.5 33 9.9 E 19 28 10 15 1018.9 1017.7 0.0
08/09:00pm 28.1 24.5 6.8 26 11.4 E 15 22 8 12 1018.6 1017.3 0.0
08/08:30pm 28.7 25.3 6.1 24 12.0 E 13 19 7 10 1018.3 1017.0 0.0
08/08:00pm 29.6 26.7 6.3 23 12.5 E 11 17 6 9 1018.0 1016.7 0.0
08/07:30pm 30.5 27.4 5.7 21 13.2 E 11 13 6 7 1017.8 1016.5 0.0
08/07:00pm 32.0 28.9 5.5 19 14.2 E 11 15 6 8 1017.5 1016.2 0.0
08/06:30pm 33.6 29.5 4.3 16 15.6 E 15 24 8 13 1017.2 1015.9 0.0
08/06:00pm 34.6 30.5 4.2 15 16.2 E 15 24 8 13 1016.9 1015.6 0.0
08/05:30pm 35.1 30.9 3.6 14 16.7 E 15 24 8 13 1016.7 1015.4 0.0
08/05:00pm 35.3 30.5 2.7 13 17.0 ESE 17 26 9 14 1016.7 1015.4 0.0
08/04:30pm 35.8 32.6 3.1 13 17.2 NNE 9 17 5 9 1016.8 1015.5 0.0
08/04:00pm 35.7 31.0 3.0 13 17.2 NE 17 26 9 14 1017.0 1015.7 0.0
08/03:30pm 35.9 31.2 3.2 13 17.3 E 17 28 9 15 1017.3 1016.0 0.0
08/03:00pm 35.6 32.2 4.0 14 16.9 ENE 11 17 6 9 1017.8 1016.5 0.0
08/02:30pm 35.7 30.8 4.1 14 16.9 ENE 19 28 10 15 1018.1 1016.8 0.0
08/02:00pm 35.3 31.1 5.7 16 16.2 ENE 17 26 9 14 1018.4 1017.1 0.0
08/01:30pm 35.0 30.4 5.4 16 16.1 ENE 19 33 10 18 1019.0 1017.8 0.0
08/01:00pm 33.8 29.1 6.2 18 15.1 ENE 20 32 11 17 1019.5 1018.2 0.0
08/12:30pm 32.9 29.0 7.0 20 14.3 ENE 17 32 9 17 1019.9 1018.6 0.0
08/12:00pm 31.9 28.5 7.5 22 13.5 NE 15 30 8 16 1020.4 1019.1 0.0
08/11:30am 32.2 29.4 8.4 23 13.4 NE 13 26 7 14 1020.6 1019.3 0.0
08/11:00am 31.3 29.0 8.9 25 12.6 NNE 11 24 6 13 1021.2 1019.9 0.0
08/10:30am 29.7 26.8 8.2 26 11.9 NNE 13 26 7 14 1021.7 1020.4 0.0
08/10:00am 28.8 25.1 9.5 30 10.8 NNE 19 28 10 15 1022.0 1020.7 0.0
08/09:30am 26.6 23.3 9.5 34 9.5 N 17 22 9 12 1022.2 1021.0 0.0
08/09:00am 25.5 22.1 10.5 39 8.4 N 19 22 10 12 1022.3 1021.1 0.0

Other Formats:

Comma delimited format used in spreadsheet applications
http://www.bom.gov.au/fwo/IDW60801/IDW60801.95642.axf

JavaScript Object Notation format (JSON) in row-major order
http://www.bom.gov.au/fwo/IDW60801/IDW60801.95642.json